Wellington, United Kingdom
Current Conditions -  °F | °C
As of 1:20 PM on Wednesday 22 Oct 2014 (Local Time) from EGTE Reporting Station
Scattered Clouds Scattered Clouds  
Wind Chill: 55°   Ceiling: Unl
Heat Index: 55°   Visibility: 6mi
Dew Point: 45°   Wind: 9mph
Humidity: 67%   Direction: 290°WNW
Pressure: 30.33"   Gusts: NA
Location:  50.98°N, 3.24°W
Report Text: EGTE 221220Z 29008KT 260V320 9999 SCT030 13/07 Q1027
Loading
Personal Weather Stations






























Interactive Weather Map
Tropical Storm Tracking
New forecast layout! Learn more

10-Day Weather Forecast

Advertisements
Track Severe Weather on mobile